Time;durP1;ratioP1;P1;durP2;ratioP2;P2;SDS_P1;SDS_P2;PMS_P1;PMS_P2;Temp;Humidity;BMP_temperature;BMP_pressure;BME280_temperature;BME280_humidity;BME280_pressure;Samples;Min_cycle;Max_cycle;Signal;HPM_P1;HPM_P2
2022/07/20 00:00:17;;;;;;;;;;;;;;;;;;5000071;28;19955;-66
2022/07/20 00:02:42;;;;;;;;;;;;;;;;;;5005741;28;19967;-66
2022/07/20 00:05:07;;;;;;;;;;;;;;;;;;5002456;28;19914;-66
2022/07/20 00:07:32;;;;;;;;;;;;;;;;;;5000028;28;19941;-66
2022/07/20 00:12:41;;;;;;;;;;;;;;;;;;4999686;28;19923;-66
2022/07/20 00:15:07;;;;;;;;;;;;;;;;;;4997352;28;20363;-66
2022/07/20 00:17:32;;;;;;;;;;;;;;;;;;5000905;28;19920;-66
2022/07/20 00:19:57;;;;;;;;;;;;;;;;;;5001317;28;19932;-66
2022/07/20 00:22:22;;;;;;;;;;;;;;;;;;5000263;28;19970;-66
2022/07/20 00:24:47;;;;;;;;;;;;;;;;;;5001896;28;20675;-66
2022/07/20 00:27:12;;;;;;;;;;;;;;;;;;5002813;28;20032;-66
2022/07/20 00:29:37;;;;;;;;;;;;;;;;;;4997762;28;19920;-66
2022/07/20 00:32:02;;;;;;;;;;;;;;;;;;5002173;28;20370;-66
2022/07/20 00:34:27;;;;;;;;;;;;;;;;;;4998907;28;19951;-66
2022/07/20 00:36:52;;;;;;;;;;;;;;;;;;5001084;28;19952;-66
2022/07/20 00:39:17;;;;;;;;;;;;;;;;;;4999127;28;20343;-66
2022/07/20 00:41:42;;;;;;;;;;;;;;;;;;5000586;28;20020;-66
2022/07/20 00:44:08;;;;;;;;;;;;;;;;;;4997765;28;19913;-66
2022/07/20 00:46:33;;;;;;;;;;;;;;;;;;4997081;28;19951;-66
2022/07/20 00:48:58;;;;;;;;;;;;;;;;;;4998319;28;19924;-66
2022/07/20 00:51:23;;;;;;;;;;;;;;;;;;5000064;28;19968;-66
2022/07/20 00:53:48;;;;;;;;;;;;;;;;;;5000425;28;20016;-65
2022/07/20 00:56:13;;;;;;;;;;;;;;;;;;5000624;28;20044;-65
2022/07/20 00:58:38;;;;;;;;;;;;;;;;;;4999773;28;19913;-66
2022/07/20 01:01:03;;;;;;;;;;;;;;;;;;5000258;28;19917;-65
2022/07/20 01:03:28;;;;;;;;;;;;;;;;;;5000146;28;19925;-65
2022/07/20 01:05:53;;;;;;;;;;;;;;;;;;4998918;28;20284;-66
2022/07/20 01:08:19;;;;;;;;;;;;;;;;;;4999743;28;20151;-65
2022/07/20 01:10:44;;;;;;;;;;;;;;;;;;4998527;28;19925;-65
2022/07/20 01:13:09;;;;;;;;;;;;;;;;;;4994879;28;19991;-66
2022/07/20 01:15:34;;;;;;;;;;;;;;;;;;4997217;28;20048;-65
2022/07/20 01:17:59;;;;;;;;;;;;;;;;;;4999500;28;19909;-65
2022/07/20 01:20:24;;;;;;;;;;;;;;;;;;4996431;28;19917;-66
2022/07/20 01:22:49;;;;;;;;;;;;;;;;;;5000506;28;20450;-65
2022/07/20 01:25:14;;;;;;;;;;;;;;;;;;4997204;28;19918;-65
2022/07/20 01:27:39;;;;;;;;;;;;;;;;;;4998651;28;19951;-66
2022/07/20 01:30:05;;;;;;;;;;;;;;;;;;5000094;28;19913;-65
2022/07/20 01:32:30;;;;;;;;;;;;;;;;;;4999039;28;20008;-65
2022/07/20 01:34:55;;;;;;;;;;;;;;;;;;4997837;28;19913;-65
2022/07/20 01:37:20;;;;;;;;;;;;;;;;;;5000100;28;19959;-65
2022/07/20 01:39:45;;;;;;;;;;;;;;;;;;5001668;28;20000;-65
2022/07/20 01:42:10;;;;;;;;;;;;;;;;;;5004307;28;19913;-66
2022/07/20 01:44:35;;;;;;;;;;;;;;;;;;4996135;28;19924;-65
2022/07/20 01:47:00;;;;;;;;;;;;;;;;;;4998007;28;20032;-65
2022/07/20 01:49:27;;;;;;;;;;;;;;;;;;4999241;28;19921;-65
2022/07/20 01:51:52;;;;;;;;;;;;;;;;;;4999900;28;20490;-65
2022/07/20 01:54:17;;;;;;;;;;;;;;;;;;4998038;28;20376;-65
2022/07/20 01:56:43;;;;;;;;;;;;;;;;;;4998425;28;20326;-65
2022/07/20 01:59:08;;;;;;;;;;;;;;;;;;4997999;28;19909;-65
2022/07/20 02:01:33;;;;;;;;;;;;;;;;;;4995610;28;19938;-65
2022/07/20 02:03:58;;;;;;;;;;;;;;;;;;5002691;28;19913;-65
2022/07/20 02:06:23;;;;;;;;;;;;;;;;;;4998492;28;19921;-65
2022/07/20 02:08:48;;;;;;;;;;;;;;;;;;4999606;28;20017;-66
2022/07/20 02:11:13;;;;;;;;;;;;;;;;;;5000189;28;19913;-66
2022/07/20 02:13:38;;;;;;;;;;;;;;;;;;4997790;28;19917;-65
2022/07/20 02:16:16;;;;;;;;;;;;;;;;;;4996395;28;19980;-65
2022/07/20 02:18:41;;;;;;;;;;;;;;;;;;5001474;28;19921;-65
2022/07/20 02:21:06;;;;;;;;;;;;;;;;;;4998483;28;19913;-65
2022/07/20 02:23:32;;;;;;;;;;;;;;;;;;5001148;28;19913;-66
2022/07/20 02:25:57;;;;;;;;;;;;;;;;;;4995727;28;20028;-66
2022/07/20 02:28:22;;;;;;;;;;;;;;;;;;5000669;28;20277;-65
2022/07/20 02:30:47;;;;;;;;;;;;;;;;;;5001662;28;19917;-66
2022/07/20 02:33:12;;;;;;;;;;;;;;;;;;4994909;28;20280;-66
2022/07/20 02:35:37;;;;;;;;;;;;;;;;;;5006462;28;19921;-65
2022/07/20 02:38:02;;;;;;;;;;;;;;;;;;5004569;28;19910;-66
2022/07/20 02:40:27;;;;;;;;;;;;;;;;;;5006846;28;19921;-66
2022/07/20 02:42:52;;;;;;;;;;;;;;;;;;5000896;28;20300;-65
2022/07/20 02:45:17;;;;;;;;;;;;;;;;;;5002522;28;19913;-65
2022/07/20 02:47:43;;;;;;;;;;;;;;;;;;5009505;28;19995;-65
2022/07/20 02:50:08;;;;;;;;;;;;;;;;;;5005918;28;19909;-65
2022/07/20 02:52:33;;;;;;;;;;;;;;;;;;5008860;28;19917;-65
2022/07/20 02:54:58;;;;;;;;;;;;;;;;;;5006930;28;19913;-65
2022/07/20 02:57:23;;;;;;;;;;;;;;;;;;5008303;28;19913;-65
2022/07/20 02:59:48;;;;;;;;;;;;;;;;;;5004119;28;20427;-65
2022/07/20 03:02:13;;;;;;;;;;;;;;;;;;5004638;28;20648;-65
2022/07/20 03:04:38;;;;;;;;;;;;;;;;;;5003358;28;19914;-65
2022/07/20 03:07:04;;;;;;;;;;;;;;;;;;5012101;28;20350;-66
2022/07/20 03:09:29;;;;;;;;;;;;;;;;;;5006380;28;19913;-65
2022/07/20 03:11:54;;;;;;;;;;;;;;;;;;5000739;28;20331;-65
2022/07/20 03:14:19;;;;;;;;;;;;;;;;;;5001357;28;19921;-65
2022/07/20 03:16:44;;;;;;;;;;;;;;;;;;5003316;28;20518;-65
2022/07/20 03:19:09;;;;;;;;;;;;;;;;;;5008703;28;19909;-65
2022/07/20 03:21:34;;;;;;;;;;;;;;;;;;5006864;28;19917;-66
2022/07/20 03:23:59;;;;;;;;;;;;;;;;;;5005002;28;19975;-65
2022/07/20 03:26:24;;;;;;;;;;;;;;;;;;5007864;28;19948;-65
2022/07/20 03:28:49;;;;;;;;;;;;;;;;;;5008593;28;19935;-65
2022/07/20 03:31:15;;;;;;;;;;;;;;;;;;5003069;28;20040;-65
2022/07/20 03:33:40;;;;;;;;;;;;;;;;;;5004387;28;20441;-65
2022/07/20 03:36:05;;;;;;;;;;;;;;;;;;5004197;28;20035;-65
2022/07/20 03:38:30;;;;;;;;;;;;;;;;;;5001310;28;19913;-65
2022/07/20 03:40:55;;;;;;;;;;;;;;;;;;5002292;28;20367;-65
2022/07/20 03:43:21;;;;;;;;;;;;;;;;;;5000393;28;20004;-66
2022/07/20 03:45:46;;;;;;;;;;;;;;;;;;5001992;28;19912;-65
2022/07/20 03:48:11;;;;;;;;;;;;;;;;;;5003730;28;19960;-65
2022/07/20 03:50:37;;;;;;;;;;;;;;;;;;5006387;28;19917;-65
2022/07/20 03:53:02;;;;;;;;;;;;;;;;;;5009875;28;20295;-65
2022/07/20 03:55:27;;;;;;;;;;;;;;;;;;5003698;28;20268;-65
2022/07/20 03:57:52;;;;;;;;;;;;;;;;;;5005001;28;19948;-65
2022/07/20 04:00:17;;;;;;;;;;;;;;;;;;5003200;28;19913;-65
2022/07/20 04:02:42;;;;;;;;;;;;;;;;;;5003939;28;19924;-65
2022/07/20 04:05:08;;;;;;;;;;;;;;;;;;5003194;28;19909;-65
2022/07/20 04:07:33;;;;;;;;;;;;;;;;;;5005067;28;19939;-65
2022/07/20 04:09:58;;;;;;;;;;;;;;;;;;5002432;28;19920;-65
2022/07/20 04:12:23;;;;;;;;;;;;;;;;;;5005318;28;20332;-65
2022/07/20 04:14:49;;;;;;;;;;;;;;;;;;5001019;28;19923;-65
2022/07/20 04:17:14;;;;;;;;;;;;;;;;;;5004036;28;20385;-65
2022/07/20 04:19:39;;;;;;;;;;;;;;;;;;5004595;28;20260;-65
2022/07/20 04:22:05;;;;;;;;;;;;;;;;;;5002891;28;20063;-65
2022/07/20 04:24:30;;;;;;;;;;;;;;;;;;5002665;28;20384;-65
2022/07/20 04:26:55;;;;;;;;;;;;;;;;;;5004057;28;19925;-65
2022/07/20 04:29:21;;;;;;;;;;;;;;;;;;5003153;28;19920;-65
2022/07/20 04:31:46;;;;;;;;;;;;;;;;;;5002431;28;19913;-65
2022/07/20 04:34:11;;;;;;;;;;;;;;;;;;5001331;28;19914;-65
2022/07/20 04:36:36;;;;;;;;;;;;;;;;;;5005176;28;20023;-65
2022/07/20 04:39:01;;;;;;;;;;;;;;;;;;5003906;28;19913;-65
2022/07/20 04:41:26;;;;;;;;;;;;;;;;;;5004694;28;19913;-65
2022/07/20 04:43:51;;;;;;;;;;;;;;;;;;5009686;28;19910;-65
2022/07/20 04:46:16;;;;;;;;;;;;;;;;;;5002460;28;19913;-65
2022/07/20 04:48:41;;;;;;;;;;;;;;;;;;5003664;28;19928;-65
2022/07/20 04:51:06;;;;;;;;;;;;;;;;;;5004697;28;20387;-65
2022/07/20 04:53:32;;;;;;;;;;;;;;;;;;5004252;28;19914;-65
2022/07/20 04:55:57;;;;;;;;;;;;;;;;;;5005013;28;20000;-65
2022/07/20 04:58:22;;;;;;;;;;;;;;;;;;5007177;28;20008;-65
2022/07/20 05:00:47;;;;;;;;;;;;;;;;;;5005317;28;19909;-65
2022/07/20 05:03:12;;;;;;;;;;;;;;;;;;5005185;28;20340;-65
2022/07/20 05:05:37;;;;;;;;;;;;;;;;;;5002670;28;20000;-65
2022/07/20 05:08:02;;;;;;;;;;;;;;;;;;5003905;28;20315;-66
2022/07/20 05:10:27;;;;;;;;;;;;;;;;;;5016884;28;19952;-66
2022/07/20 05:12:52;;;;;;;;;;;;;;;;;;5000746;28;19913;-66
2022/07/20 05:15:23;;;;;;;;;;;;;;;;;;4999464;28;20004;-66
2022/07/20 05:17:48;;;;;;;;;;;;;;;;;;5000702;28;20367;-66
2022/07/20 05:20:13;;;;;;;;;;;;;;;;;;5004684;28;20253;-66
2022/07/20 05:22:38;;;;;;;;;;;;;;;;;;4999986;28;19917;-66
2022/07/20 05:25:03;;;;;;;;;;;;;;;;;;4999709;28;19913;-66
2022/07/20 05:27:28;;;;;;;;;;;;;;;;;;4998963;28;19917;-66
2022/07/20 05:29:53;;;;;;;;;;;;;;;;;;4998116;28;19952;-66
2022/07/20 05:32:18;;;;;;;;;;;;;;;;;;5003380;28;20326;-66
2022/07/20 05:34:44;;;;;;;;;;;;;;;;;;5003979;28;20295;-66
2022/07/20 05:37:09;;;;;;;;;;;;;;;;;;5004659;28;19917;-66
2022/07/20 05:39:34;;;;;;;;;;;;;;;;;;5008305;28;19913;-66
2022/07/20 05:41:59;;;;;;;;;;;;;;;;;;5001005;28;19913;-66
2022/07/20 05:44:24;;;;;;;;;;;;;;;;;;5002281;28;20656;-66
2022/07/20 05:46:49;;;;;;;;;;;;;;;;;;4998226;28;20381;-66
2022/07/20 05:49:14;;;;;;;;;;;;;;;;;;5004077;28;19921;-66
2022/07/20 05:51:39;;;;;;;;;;;;;;;;;;4999939;28;19920;-68
2022/07/20 05:54:04;;;;;;;;;;;;;;;;;;4997734;28;20411;-66
2022/07/20 05:56:29;;;;;;;;;;;;;;;;;;5001206;28;19925;-66
2022/07/20 05:58:54;;;;;;;;;;;;;;;;;;5001405;28;19910;-66
2022/07/20 06:01:20;;;;;;;;;;;;;;;;;;5005241;28;20119;-66
2022/07/20 06:03:45;;;;;;;;;;;;;;;;;;5001369;28;19948;-66
2022/07/20 06:06:10;;;;;;;;;;;;;;;;;;5004099;28;19967;-66
2022/07/20 06:08:37;;;;;;;;;;;;;;;;;;4997992;28;20288;-67
2022/07/20 06:11:02;;;;;;;;;;;;;;;;;;5000721;28;19917;-67
2022/07/20 06:13:27;;;;;;;;;;;;;;;;;;5006219;28;19976;-66
2022/07/20 06:15:52;;;;;;;;;;;;;;;;;;5002770;28;19983;-67
2022/07/20 06:18:17;;;;;;;;;;;;;;;;;;5005560;28;19924;-67
2022/07/20 06:20:42;;;;;;;;;;;;;;;;;;5003389;28;20285;-66
2022/07/20 06:23:08;;;;;;;;;;;;;;;;;;5006082;28;19905;-69
2022/07/20 06:25:33;;;;;;;;;;;;;;;;;;5006436;28;20323;-70
2022/07/20 06:28:00;;;;;;;;;;;;;;;;;;5006680;28;20028;-71
2022/07/20 06:30:25;;;;;;;;;;;;;;;;;;5005701;28;19909;-68
2022/07/20 06:32:50;;;;;;;;;;;;;;;;;;5007406;28;19955;-66
2022/07/20 06:35:16;;;;;;;;;;;;;;;;;;5003701;28;19917;-68
2022/07/20 06:37:41;;;;;;;;;;;;;;;;;;5001117;28;20741;-68
2022/07/20 06:40:06;;;;;;;;;;;;;;;;;;5002894;28;19918;-69
2022/07/20 06:42:31;;;;;;;;;;;;;;;;;;5007713;28;19913;-68
2022/07/20 06:44:56;;;;;;;;;;;;;;;;;;5005958;28;20396;-69
2022/07/20 06:47:22;;;;;;;;;;;;;;;;;;5006478;28;19917;-69
2022/07/20 06:49:47;;;;;;;;;;;;;;;;;;5007297;28;20363;-70
2022/07/20 06:52:12;;;;;;;;;;;;;;;;;;5003920;28;20307;-68
2022/07/20 06:54:37;;;;;;;;;;;;;;;;;;5002909;28;19913;-68
2022/07/20 06:57:02;;;;;;;;;;;;;;;;;;5004453;28;20371;-70
2022/07/20 06:59:27;;;;;;;;;;;;;;;;;;5001247;28;20485;-68
2022/07/20 07:01:53;;;;;;;;;;;;;;;;;;4999663;28;19952;-69
2022/07/20 07:04:18;;;;;;;;;;;;;;;;;;5002631;28;19909;-69
2022/07/20 07:06:43;;;;;;;;;;;;;;;;;;5020269;23;19919;-68
2022/07/20 07:09:09;;;;;;;;;;;;;;;;;;5023004;28;19919;-67
2022/07/20 07:11:34;;;;;;;;;;;;;;;;;;5022544;28;19917;-67
2022/07/20 07:13:59;;;;;;;;;;;;;;;;;;5021351;28;20012;-69
2022/07/20 07:16:25;;;;;;;;;;;;;;;;;;5019096;28;19917;-68
2022/07/20 07:18:50;;;;;;;;;;;;;;;;;;5023177;28;19944;-68
2022/07/20 07:21:15;;;;;;;;;;;;;;;;;;5023352;28;19923;-67
2022/07/20 07:23:40;;;;;;;;;;;;;;;;;;5024514;28;19917;-68
2022/07/20 07:26:05;;;;;;;;;;;;;;;;;;5023404;28;20375;-69
2022/07/20 07:28:30;;;;;;;;;;;;;;;;;;5035560;28;19913;-68
2022/07/20 07:30:55;;;;;;;;;;;;;;;;;;5036514;28;19913;-68
2022/07/20 07:33:25;;;;;;;;;;;;;;;;;;5024498;28;19952;-68
2022/07/20 07:35:50;;;;;;;;;;;;;;;;;;5023953;28;19918;-66
2022/07/20 07:38:15;;;;;;;;;;;;;;;;;;5027872;28;19917;-68
2022/07/20 07:40:40;;;;;;;;;;;;;;;;;;5023899;28;19924;-70
2022/07/20 07:43:05;;;;;;;;;;;;;;;;;;5031455;28;19915;-69
2022/07/20 07:45:31;;;;;;;;;;;;;;;;;;5020195;28;19959;-71
2022/07/20 07:47:56;;;;;;;;;;;;;;;;;;5023602;28;19959;-67
2022/07/20 07:50:21;;;;;;;;;;;;;;;;;;5030349;28;20292;-69
2022/07/20 07:52:46;;;;;;;;;;;;;;;;;;5022451;28;20055;-68
2022/07/20 07:55:11;;;;;;;;;;;;;;;;;;5017230;28;19917;-69
2022/07/20 07:57:36;;;;;;;;;;;;;;;;;;5034885;28;19924;-70
2022/07/20 08:00:02;;;;;;;;;;;;;;;;;;5019463;28;19913;-69
2022/07/20 08:02:27;;;;;;;;;;;;;;;;;;5021895;28;19914;-69
2022/07/20 08:04:52;;;;;;;;;;;;;;;;;;5024596;28;19913;-71
2022/07/20 08:07:18;;;;;;;;;;;;;;;;;;5033183;28;19962;-72
2022/07/20 08:09:43;;;;;;;;;;;;;;;;;;5016597;28;20005;-72
2022/07/20 08:12:08;;;;;;;;;;;;;;;;;;5023318;28;19908;-72
2022/07/20 08:14:33;;;;;;;;;;;;;;;;;;5026802;28;19913;-70
2022/07/20 08:16:58;;;;;;;;;;;;;;;;;;5022889;28;19917;-70
2022/07/20 08:19:23;;;;;;;;;;;;;;;;;;5028655;28;19908;-73
2022/07/20 08:21:48;;;;;;;;;;;;;;;;;;5023903;28;20649;-76
2022/07/20 08:24:16;;;;;;;;;;;;;;;;;;5017407;28;19912;-71
2022/07/20 08:26:41;;;;;;;;;;;;;;;;;;5023656;28;19913;-70
2022/07/20 08:29:06;;;;;;;;;;;;;;;;;;5017636;28;19912;-70
2022/07/20 08:31:31;;;;;;;;;;;;;;;;;;5026703;28;20339;-71
2022/07/20 08:33:56;;;;;;;;;;;;;;;;;;5028890;28;19944;-71
2022/07/20 08:36:21;;;;;;;;;;;;;;;;;;5033184;28;19923;-69
2022/07/20 08:38:46;;;;;;;;;;;;;;;;;;5024486;28;20341;-70
2022/07/20 08:41:11;;;;;;;;;;;;;;;;;;5034745;28;19919;-70
2022/07/20 08:43:36;;;;;;;;;;;;;;;;;;5030321;28;19913;-70
2022/07/20 08:46:02;;;;;;;;;;;;;;;;;;5020199;28;19920;-69
2022/07/20 08:48:27;;;;;;;;;;;;;;;;;;5026757;28;20394;-69
2022/07/20 08:50:52;;;;;;;;;;;;;;;;;;5031292;28;20375;-69
2022/07/20 08:53:17;;;;;;;;;;;;;;;;;;5026981;28;20389;-71
2022/07/20 08:55:42;;;;;;;;;;;;;;;;;;5030238;28;19920;-70
2022/07/20 08:58:07;;;;;;;;;;;;;;;;;;5031824;28;20105;-71
2022/07/20 09:00:33;;;;;;;;;;;;;;;;;;5024460;28;20374;-69
2022/07/20 09:03:01;;;;;;;;;;;;;;;;;;5022183;28;19920;-70
2022/07/20 09:05:28;;;;;;;;;;;;;;;;;;5037111;28;19919;-69
2022/07/20 09:07:53;;;;;;;;;;;;;;;;;;5022896;28;19927;-70
2022/07/20 09:10:18;;;;;;;;;;;;;;;;;;5026599;28;19921;-70
2022/07/20 09:12:43;;;;;;;;;;;;;;;;;;5029077;28;19913;-69
2022/07/20 09:15:08;;;;;;;;;;;;;;;;;;5024589;28;19925;-72
2022/07/20 09:17:33;;;;;;;;;;;;;;;;;;5024355;28;19919;-70
2022/07/20 09:19:59;;;;;;;;;;;;;;;;;;5024897;28;20011;-70
2022/07/20 09:22:24;;;;;;;;;;;;;;;;;;5028068;28;19935;-71
2022/07/20 09:24:49;;;;;;;;;;;;;;;;;;5026397;28;19967;-69
2022/07/20 09:27:14;;;;;;;;;;;;;;;;;;5025935;28;20267;-69
2022/07/20 09:29:39;;;;;;;;;;;;;;;;;;5027226;28;19923;-68
2022/07/20 09:32:04;;;;;;;;;;;;;;;;;;5024718;28;19956;-70
2022/07/20 09:34:29;;;;;;;;;;;;;;;;;;5024767;28;19967;-69
2022/07/20 09:36:54;;;;;;;;;;;;;;;;;;5023414;28;19917;-70
2022/07/20 09:39:19;;;;;;;;;;;;;;;;;;5030751;28;19917;-72
2022/07/20 09:41:44;;;;;;;;;;;;;;;;;;5032874;28;19958;-69
2022/07/20 09:44:12;;;;;;;;;;;;;;;;;;5036255;28;20346;-69
2022/07/20 09:46:38;;;;;;;;;;;;;;;;;;5021869;28;19913;-68
2022/07/20 09:49:03;;;;;;;;;;;;;;;;;;5031027;28;19938;-68
2022/07/20 09:51:28;;;;;;;;;;;;;;;;;;5024010;28;20006;-71
2022/07/20 09:53:53;;;;;;;;;;;;;;;;;;5026330;28;19924;-69
2022/07/20 09:56:18;;;;;;;;;;;;;;;;;;5024997;28;19920;-69
2022/07/20 09:58:43;;;;;;;;;;;;;;;;;;5025021;28;20387;-70
2022/07/20 10:01:08;;;;;;;;;;;;;;;;;;5026397;28;19932;-71
2022/07/20 10:03:33;;;;;;;;;;;;;;;;;;5029570;28;19913;-69
2022/07/20 10:05:58;;;;;;;;;;;;;;;;;;5027949;28;19913;-69
2022/07/20 10:08:24;;;;;;;;;;;;;;;;;;5024223;28;19959;-72
2022/07/20 10:10:49;;;;;;;;;;;;;;;;;;5025274;28;19913;-71
2022/07/20 10:13:14;;;;;;;;;;;;;;;;;;5022244;28;19920;-71
2022/07/20 10:15:39;;;;;;;;;;;;;;;;;;5022635;28;19924;-71
2022/07/20 10:18:04;;;;;;;;;;;;;;;;;;5027619;28;20309;-69
2022/07/20 10:20:30;;;;;;;;;;;;;;;;;;5021267;28;19913;-69
2022/07/20 10:22:55;;;;;;;;;;;;;;;;;;5019301;28;19917;-68
2022/07/20 10:25:20;;;;;;;;;;;;;;;;;;5017428;28;20547;-69
2022/07/20 10:27:46;;;;;;;;;;;;;;;;;;5020980;28;19912;-70
2022/07/20 10:30:11;;;;;;;;;;;;;;;;;;5025986;28;20286;-69
2022/07/20 10:32:36;;;;;;;;;;;;;;;;;;5020637;28;20166;-68
2022/07/20 10:35:01;;;;;;;;;;;;;;;;;;5024571;28;19920;-70
2022/07/20 10:37:27;;;;;;;;;;;;;;;;;;5017441;28;19926;-72
2022/07/20 10:39:52;;;;;;;;;;;;;;;;;;5018235;28;19920;-71
2022/07/20 10:42:17;;;;;;;;;;;;;;;;;;5022168;28;19913;-70
2022/07/20 10:44:43;;;;;;;;;;;;;;;;;;5018445;28;19919;-70
2022/07/20 10:47:08;;;;;;;;;;;;;;;;;;5016552;28;19936;-70
2022/07/20 10:49:33;;;;;;;;;;;;;;;;;;5029133;28;20371;-69
2022/07/20 10:51:58;;;;;;;;;;;;;;;;;;5019846;28;19924;-70
2022/07/20 10:54:23;;;;;;;;;;;;;;;;;;5016217;28;20221;-72
2022/07/20 10:56:48;;;;;;;;;;;;;;;;;;5023794;28;19970;-70
2022/07/20 10:59:13;;;;;;;;;;;;;;;;;;5024180;28;19913;-70
2022/07/20 11:01:38;;;;;;;;;;;;;;;;;;5022496;28;19920;-69
2022/07/20 11:04:03;;;;;;;;;;;;;;;;;;5022409;28;19972;-69
2022/07/20 11:06:28;;;;;;;;;;;;;;;;;;5022968;28;19976;-70
2022/07/20 11:08:53;;;;;;;;;;;;;;;;;;5040578;28;19950;-70
2022/07/20 11:11:19;;;;;;;;;;;;;;;;;;5029403;28;20282;-68
2022/07/20 11:13:46;;;;;;;;;;;;;;;;;;5032699;28;19936;-69
2022/07/20 11:16:11;;;;;;;;;;;;;;;;;;5033385;28;19917;-68
2022/07/20 11:18:36;;;;;;;;;;;;;;;;;;5030502;28;19920;-69
2022/07/20 11:21:01;;;;;;;;;;;;;;;;;;5031541;28;19913;-68
2022/07/20 11:23:26;;;;;;;;;;;;;;;;;;5034681;28;20311;-69
2022/07/20 11:25:52;;;;;;;;;;;;;;;;;;5026539;28;19913;-69
2022/07/20 11:28:17;;;;;;;;;;;;;;;;;;5020410;28;20360;-71
2022/07/20 11:30:42;;;;;;;;;;;;;;;;;;5019855;28;19913;-73
2022/07/20 11:33:07;;;;;;;;;;;;;;;;;;5023988;28;19920;-70
2022/07/20 11:35:32;;;;;;;;;;;;;;;;;;5031519;28;20483;-70
2022/07/20 11:37:57;;;;;;;;;;;;;;;;;;5029068;28;20015;-71
2022/07/20 11:40:23;;;;;;;;;;;;;;;;;;5024702;28;19920;-70
2022/07/20 11:42:48;;;;;;;;;;;;;;;;;;5023693;28;19924;-72
2022/07/20 11:45:13;;;;;;;;;;;;;;;;;;5026891;28;19920;-71
2022/07/20 11:47:38;;;;;;;;;;;;;;;;;;5031249;28;20354;-71
2022/07/20 11:50:03;;;;;;;;;;;;;;;;;;5031393;28;19913;-69
2022/07/20 11:52:28;;;;;;;;;;;;;;;;;;5018710;28;19913;-68
2022/07/20 11:54:53;;;;;;;;;;;;;;;;;;5024794;28;20047;-71
2022/07/20 11:57:18;;;;;;;;;;;;;;;;;;5025342;28;19916;-68
2022/07/20 11:59:43;;;;;;;;;;;;;;;;;;5020602;28;21271;-69
2022/07/20 12:02:08;;;;;;;;;;;;;;;;;;5019536;28;19959;-68
2022/07/20 12:04:33;;;;;;;;;;;;;;;;;;5020106;28;19913;-68
2022/07/20 12:06:59;;;;;;;;;;;;;;;;;;5024203;28;19913;-69
2022/07/20 12:09:24;;;;;;;;;;;;;;;;;;5023115;28;19912;-70
2022/07/20 12:11:49;;;;;;;;;;;;;;;;;;5017876;28;19913;-70
2022/07/20 12:14:14;;;;;;;;;;;;;;;;;;5018500;28;19917;-68
2022/07/20 12:16:39;;;;;;;;;;;;;;;;;;5027432;28;19921;-69
2022/07/20 12:19:04;;;;;;;;;;;;;;;;;;5027488;28;20272;-68
2022/07/20 12:21:29;;;;;;;;;;;;;;;;;;5021402;28;20411;-68
2022/07/20 12:23:54;;;;;;;;;;;;;;;;;;5024715;28;20446;-69
2022/07/20 12:26:19;;;;;;;;;;;;;;;;;;5015818;28;19956;-69
2022/07/20 12:28:44;;;;;;;;;;;;;;;;;;5024586;28;19936;-69
2022/07/20 12:31:10;;;;;;;;;;;;;;;;;;5019100;28;19912;-69
2022/07/20 12:33:35;;;;;;;;;;;;;;;;;;5021004;28;19913;-70
2022/07/20 12:36:00;;;;;;;;;;;;;;;;;;5021736;28;19917;-68
2022/07/20 12:38:25;;;;;;;;;;;;;;;;;;5023445;28;20442;-69
2022/07/20 12:40:50;;;;;;;;;;;;;;;;;;5018318;28;20331;-69
2022/07/20 12:43:15;;;;;;;;;;;;;;;;;;5021471;28;19917;-68
2022/07/20 12:45:40;;;;;;;;;;;;;;;;;;5025631;28;20348;-68
2022/07/20 12:48:06;;;;;;;;;;;;;;;;;;5024387;28;19941;-70
2022/07/20 12:50:31;;;;;;;;;;;;;;;;;;5017916;28;20052;-70
2022/07/20 12:52:56;;;;;;;;;;;;;;;;;;5018630;28;19919;-69
2022/07/20 12:55:22;;;;;;;;;;;;;;;;;;5016855;28;19913;-69
2022/07/20 12:57:47;;;;;;;;;;;;;;;;;;5018101;28;20391;-71
2022/07/20 13:00:12;;;;;;;;;;;;;;;;;;5018034;28;19921;-70
2022/07/20 13:02:37;;;;;;;;;;;;;;;;;;5013977;28;19923;-69
2022/07/20 13:05:02;;;;;;;;;;;;;;;;;;5014204;28;20051;-71
2022/07/20 13:07:28;;;;;;;;;;;;;;;;;;5016760;28;19928;-70
2022/07/20 13:09:53;;;;;;;;;;;;;;;;;;5022091;28;19936;-69
2022/07/20 13:12:19;;;;;;;;;;;;;;;;;;5013620;28;19913;-70
2022/07/20 13:14:44;;;;;;;;;;;;;;;;;;5009996;28;19909;-70
2022/07/20 13:17:09;;;;;;;;;;;;;;;;;;5011497;28;19917;-70
2022/07/20 13:19:34;;;;;;;;;;;;;;;;;;5014772;28;20026;-69
2022/07/20 13:21:59;;;;;;;;;;;;;;;;;;5015859;28;20241;-70
2022/07/20 13:24:24;;;;;;;;;;;;;;;;;;5015854;28;19913;-70
2022/07/20 13:26:50;;;;;;;;;;;;;;;;;;5014286;28;19924;-70
2022/07/20 13:29:15;;;;;;;;;;;;;;;;;;5025640;28;20362;-70
2022/07/20 13:31:40;;;;;;;;;;;;;;;;;;5013623;28;20439;-71
2022/07/20 13:34:05;;;;;;;;;;;;;;;;;;5017096;28;20351;-71
2022/07/20 13:36:30;;;;;;;;;;;;;;;;;;5015388;28;19955;-71
2022/07/20 13:38:55;;;;;;;;;;;;;;;;;;5013167;28;20224;-71
2022/07/20 13:41:21;;;;;;;;;;;;;;;;;;5012608;28;20439;-70
2022/07/20 13:43:46;;;;;;;;;;;;;;;;;;5016233;28;19917;-71
2022/07/20 13:46:11;;;;;;;;;;;;;;;;;;5010686;28;19913;-69
2022/07/20 13:48:36;;;;;;;;;;;;;;;;;;5012508;28;20023;-68
2022/07/20 13:51:01;;;;;;;;;;;;;;;;;;5014230;28;19944;-69
2022/07/20 13:53:26;;;;;;;;;;;;;;;;;;5010343;28;19913;-70
2022/07/20 13:55:52;;;;;;;;;;;;;;;;;;5015760;28;20351;-70
2022/07/20 13:58:17;;;;;;;;;;;;;;;;;;5019685;28;19917;-69
2022/07/20 14:00:42;;;;;;;;;;;;;;;;;;5015076;28;20322;-70
2022/07/20 14:03:07;;;;;;;;;;;;;;;;;;5012711;28;19924;-71
2022/07/20 14:05:32;;;;;;;;;;;;;;;;;;5014139;28;20028;-70
2022/07/20 14:07:57;;;;;;;;;;;;;;;;;;5015537;28;19963;-72
2022/07/20 14:10:22;;;;;;;;;;;;;;;;;;5012667;28;20031;-72
2022/07/20 14:12:47;;;;;;;;;;;;;;;;;;5010843;28;19916;-70
2022/07/20 14:15:12;;;;;;;;;;;;;;;;;;5008277;28;19917;-70
2022/07/20 14:17:38;;;;;;;;;;;;;;;;;;5015226;28;20240;-70
2022/07/20 14:20:03;;;;;;;;;;;;;;;;;;5014748;28;19912;-71
2022/07/20 14:22:28;;;;;;;;;;;;;;;;;;5010832;28;20269;-69
2022/07/20 14:24:54;;;;;;;;;;;;;;;;;;5009968;28;19916;-70
2022/07/20 14:27:19;;;;;;;;;;;;;;;;;;5012603;28;19924;-71
2022/07/20 14:29:44;;;;;;;;;;;;;;;;;;5015817;28;20306;-70
2022/07/20 14:32:09;;;;;;;;;;;;;;;;;;5020761;28;19920;-71
2022/07/20 14:34:34;;;;;;;;;;;;;;;;;;5017072;28;19913;-68
2022/07/20 14:36:59;;;;;;;;;;;;;;;;;;5016727;28;20359;-71
2022/07/20 14:39:24;;;;;;;;;;;;;;;;;;5030623;28;19959;-71
2022/07/20 14:41:49;;;;;;;;;;;;;;;;;;5029104;28;19967;-70
2022/07/20 14:44:14;;;;;;;;;;;;;;;;;;5027740;28;19913;-71
2022/07/20 14:46:39;;;;;;;;;;;;;;;;;;5020401;28;19924;-70
2022/07/20 14:49:05;;;;;;;;;;;;;;;;;;5027812;28;19951;-69
2022/07/20 14:51:30;;;;;;;;;;;;;;;;;;5028913;28;19913;-69
2022/07/20 14:53:55;;;;;;;;;;;;;;;;;;5017458;28;19951;-71
2022/07/20 14:56:20;;;;;;;;;;;;;;;;;;5021452;28;20295;-70
2022/07/20 14:58:45;;;;;;;;;;;;;;;;;;5018593;28;20091;-71
2022/07/20 15:01:10;;;;;;;;;;;;;;;;;;5021236;28;19917;-69
2022/07/20 15:03:35;;;;;;;;;;;;;;;;;;5017175;28;19913;-70
2022/07/20 15:06:00;;;;;;;;;;;;;;;;;;5010461;28;20004;-71
2022/07/20 15:08:26;;;;;;;;;;;;;;;;;;5016144;28;19921;-72
2022/07/20 15:10:54;;;;;;;;;;;;;;;;;;5017004;28;19913;-71
2022/07/20 15:13:19;;;;;;;;;;;;;;;;;;5013360;28;19917;-75
2022/07/20 15:15:44;;;;;;;;;;;;;;;;;;5019744;28;19916;-69
2022/07/20 15:18:10;;;;;;;;;;;;;;;;;;5014815;28;19915;-70
2022/07/20 15:20:35;;;;;;;;;;;;;;;;;;5014049;28;19951;-70
2022/07/20 15:23:00;;;;;;;;;;;;;;;;;;5023748;28;20414;-71
2022/07/20 15:25:25;;;;;;;;;;;;;;;;;;5015922;28;19913;-72
2022/07/20 15:27:50;;;;;;;;;;;;;;;;;;5015591;28;19945;-72
2022/07/20 15:30:15;;;;;;;;;;;;;;;;;;5015917;28;20023;-75
2022/07/20 15:32:40;;;;;;;;;;;;;;;;;;5011989;28;19918;-70
2022/07/20 15:35:05;;;;;;;;;;;;;;;;;;5017748;28;19913;-71
2022/07/20 15:37:30;;;;;;;;;;;;;;;;;;5013518;28;20317;-70
2022/07/20 15:39:55;;;;;;;;;;;;;;;;;;5013333;28;19920;-70
2022/07/20 15:42:21;;;;;;;;;;;;;;;;;;5019273;28;20090;-70
2022/07/20 15:44:46;;;;;;;;;;;;;;;;;;5020425;28;19913;-69
2022/07/20 15:47:11;;;;;;;;;;;;;;;;;;5018767;28;19913;-69
2022/07/20 15:49:36;;;;;;;;;;;;;;;;;;5021131;28;20263;-69
2022/07/20 15:52:01;;;;;;;;;;;;;;;;;;5020400;28;19940;-69
2022/07/20 15:54:26;;;;;;;;;;;;;;;;;;5016714;28;20335;-71
2022/07/20 15:59:35;;;;;;;;;;;;;;;;;;5014200;28;19959;-71
2022/07/20 16:02:00;;;;;;;;;;;;;;;;;;5023311;28;20016;-71
2022/07/20 16:04:25;;;;;;;;;;;;;;;;;;5019020;28;19913;-69
2022/07/20 16:06:50;;;;;;;;;;;;;;;;;;5021842;28;19974;-71
2022/07/20 16:09:15;;;;;;;;;;;;;;;;;;5021054;28;19924;-71
2022/07/20 16:11:40;;;;;;;;;;;;;;;;;;5020326;28;20282;-71
2022/07/20 16:14:06;;;;;;;;;;;;;;;;;;5015707;28;20003;-70
2022/07/20 16:16:31;;;;;;;;;;;;;;;;;;5014149;28;19939;-69
2022/07/20 16:18:56;;;;;;;;;;;;;;;;;;5026285;28;20292;-69
2022/07/20 16:21:21;;;;;;;;;;;;;;;;;;5016376;28;19910;-69
2022/07/20 16:23:46;;;;;;;;;;;;;;;;;;5020236;28;19908;-69
2022/07/20 16:26:11;;;;;;;;;;;;;;;;;;5017737;28;20028;-72
2022/07/20 16:28:36;;;;;;;;;;;;;;;;;;5021182;28;20287;-71
2022/07/20 16:31:02;;;;;;;;;;;;;;;;;;5020609;28;20346;-70
2022/07/20 16:33:27;;;;;;;;;;;;;;;;;;5020667;28;19909;-70
2022/07/20 16:35:52;;;;;;;;;;;;;;;;;;5029692;28;19909;-73